sensor_id;sensor_type;location;lat;lon;timestamp;P1;durP1;ratioP1;P2;durP2;ratioP2
37529;SDS011;23374;52.758;6.872;2023-02-16T00:02:15;37.47;;;18.33;;
37529;SDS011;23374;52.758;6.872;2023-02-16T00:04:36;38.33;;;18.00;;
37529;SDS011;23374;52.758;6.872;2023-02-16T00:06:57;35.50;;;17.33;;
37529;SDS011;23374;52.758;6.872;2023-02-16T00:09:19;40.77;;;18.07;;
37529;SDS011;23374;52.758;6.872;2023-02-16T00:12:28;36.27;;;18.37;;
37529;SDS011;23374;52.758;6.872;2023-02-16T00:15:17;37.27;;;17.63;;
37529;SDS011;23374;52.758;6.872;2023-02-16T00:17:38;35.60;;;17.57;;
37529;SDS011;23374;52.758;6.872;2023-02-16T00:19:59;38.30;;;18.07;;
37529;SDS011;23374;52.758;6.872;2023-02-16T00:22:19;44.57;;;19.23;;
37529;SDS011;23374;52.758;6.872;2023-02-16T00:24:40;40.33;;;18.80;;
37529;SDS011;23374;52.758;6.872;2023-02-16T00:27:00;44.73;;;18.80;;
37529;SDS011;23374;52.758;6.872;2023-02-16T00:29:26;39.33;;;19.07;;
37529;SDS011;23374;52.758;6.872;2023-02-16T00:31:48;42.57;;;20.27;;
37529;SDS011;23374;52.758;6.872;2023-02-16T00:37:11;41.50;;;18.80;;
37529;SDS011;23374;52.758;6.872;2023-02-16T00:39:33;36.47;;;18.37;;
37529;SDS011;23374;52.758;6.872;2023-02-16T00:41:59;36.37;;;18.50;;
37529;SDS011;23374;52.758;6.872;2023-02-16T00:44:43;38.87;;;18.47;;
37529;SDS011;23374;52.758;6.872;2023-02-16T00:47:36;38.03;;;17.63;;
37529;SDS011;23374;52.758;6.872;2023-02-16T00:50:00;37.40;;;18.10;;
37529;SDS011;23374;52.758;6.872;2023-02-16T00:52:34;39.70;;;18.57;;
37529;SDS011;23374;52.758;6.872;2023-02-16T00:54:57;36.57;;;18.33;;
37529;SDS011;23374;52.758;6.872;2023-02-16T00:57:18;33.87;;;16.80;;
37529;SDS011;23374;52.758;6.872;2023-02-16T00:59:39;37.53;;;17.93;;
37529;SDS011;23374;52.758;6.872;2023-02-16T01:02:00;43.63;;;18.80;;
37529;SDS011;23374;52.758;6.872;2023-02-16T01:04:21;36.67;;;18.20;;
37529;SDS011;23374;52.758;6.872;2023-02-16T01:06:42;38.87;;;17.53;;
37529;SDS011;23374;52.758;6.872;2023-02-16T01:09:21;41.10;;;18.27;;
37529;SDS011;23374;52.758;6.872;2023-02-16T01:12:01;39.70;;;19.00;;
37529;SDS011;23374;52.758;6.872;2023-02-16T01:14:24;37.97;;;19.47;;
37529;SDS011;23374;52.758;6.872;2023-02-16T01:16:45;37.70;;;18.57;;
37529;SDS011;23374;52.758;6.872;2023-02-16T01:19:05;35.83;;;18.07;;
37529;SDS011;23374;52.758;6.872;2023-02-16T01:21:26;40.57;;;19.60;;
37529;SDS011;23374;52.758;6.872;2023-02-16T01:23:46;42.10;;;19.30;;
37529;SDS011;23374;52.758;6.872;2023-02-16T01:26:13;42.67;;;19.10;;
37529;SDS011;23374;52.758;6.872;2023-02-16T01:28:36;40.00;;;18.90;;
37529;SDS011;23374;52.758;6.872;2023-02-16T01:30:56;41.33;;;18.90;;
37529;SDS011;23374;52.758;6.872;2023-02-16T01:33:17;41.03;;;19.03;;
37529;SDS011;23374;52.758;6.872;2023-02-16T01:35:39;35.53;;;19.30;;
37529;SDS011;23374;52.758;6.872;2023-02-16T01:38:01;43.53;;;20.40;;
37529;SDS011;23374;52.758;6.872;2023-02-16T01:42:27;40.90;;;19.20;;
37529;SDS011;23374;52.758;6.872;2023-02-16T01:46:24;45.67;;;19.43;;
37529;SDS011;23374;52.758;6.872;2023-02-16T01:48:55;38.93;;;19.37;;
37529;SDS011;23374;52.758;6.872;2023-02-16T01:51:20;42.87;;;20.27;;
37529;SDS011;23374;52.758;6.872;2023-02-16T01:53:57;46.53;;;21.13;;
37529;SDS011;23374;52.758;6.872;2023-02-16T02:03:28;43.93;;;19.40;;
37529;SDS011;23374;52.758;6.872;2023-02-16T02:06:37;44.93;;;19.90;;
37529;SDS011;23374;52.758;6.872;2023-02-16T02:09:01;41.47;;;19.33;;
37529;SDS011;23374;52.758;6.872;2023-02-16T02:11:29;48.00;;;20.87;;
37529;SDS011;23374;52.758;6.872;2023-02-16T02:13:59;44.27;;;20.93;;
37529;SDS011;23374;52.758;6.872;2023-02-16T02:16:25;48.83;;;20.53;;
37529;SDS011;23374;52.758;6.872;2023-02-16T02:18:47;41.37;;;19.03;;
37529;SDS011;23374;52.758;6.872;2023-02-16T02:30:02;41.47;;;18.50;;
37529;SDS011;23374;52.758;6.872;2023-02-16T02:34:07;41.93;;;18.07;;
37529;SDS011;23374;52.758;6.872;2023-02-16T02:36:39;42.93;;;20.07;;
37529;SDS011;23374;52.758;6.872;2023-02-16T02:39:45;47.60;;;20.03;;
37529;SDS011;23374;52.758;6.872;2023-02-16T02:44:22;47.13;;;20.07;;
37529;SDS011;23374;52.758;6.872;2023-02-16T02:46:45;48.00;;;21.50;;
37529;SDS011;23374;52.758;6.872;2023-02-16T02:49:06;46.23;;;21.53;;
37529;SDS011;23374;52.758;6.872;2023-02-16T02:51:27;47.97;;;21.53;;
37529;SDS011;23374;52.758;6.872;2023-02-16T02:55:18;42.93;;;20.17;;
37529;SDS011;23374;52.758;6.872;2023-02-16T02:57:57;45.60;;;19.77;;
37529;SDS011;23374;52.758;6.872;2023-02-16T03:00:39;45.57;;;20.53;;
37529;SDS011;23374;52.758;6.872;2023-02-16T03:03:24;43.83;;;21.47;;
37529;SDS011;23374;52.758;6.872;2023-02-16T03:06:04;43.77;;;20.37;;
37529;SDS011;23374;52.758;6.872;2023-02-16T03:08:31;46.33;;;21.63;;
37529;SDS011;23374;52.758;6.872;2023-02-16T03:11:02;43.53;;;20.97;;
37529;SDS011;23374;52.758;6.872;2023-02-16T03:13:47;42.37;;;21.53;;
37529;SDS011;23374;52.758;6.872;2023-02-16T03:16:30;49.40;;;21.60;;
37529;SDS011;23374;52.758;6.872;2023-02-16T03:18:56;46.10;;;21.03;;
37529;SDS011;23374;52.758;6.872;2023-02-16T03:21:37;44.57;;;21.83;;
37529;SDS011;23374;52.758;6.872;2023-02-16T03:24:25;45.73;;;21.67;;
37529;SDS011;23374;52.758;6.872;2023-02-16T03:27:06;49.87;;;23.53;;
37529;SDS011;23374;52.758;6.872;2023-02-16T03:29:46;48.20;;;20.57;;
37529;SDS011;23374;52.758;6.872;2023-02-16T03:32:08;47.47;;;22.87;;
37529;SDS011;23374;52.758;6.872;2023-02-16T03:34:29;61.03;;;24.57;;
37529;SDS011;23374;52.758;6.872;2023-02-16T03:36:52;52.63;;;24.97;;
37529;SDS011;23374;52.758;6.872;2023-02-16T03:39:19;51.27;;;21.37;;
37529;SDS011;23374;52.758;6.872;2023-02-16T03:41:48;49.60;;;22.87;;
37529;SDS011;23374;52.758;6.872;2023-02-16T03:44:11;50.30;;;22.63;;
37529;SDS011;23374;52.758;6.872;2023-02-16T03:46:31;46.40;;;21.83;;
37529;SDS011;23374;52.758;6.872;2023-02-16T03:48:52;58.00;;;23.67;;
37529;SDS011;23374;52.758;6.872;2023-02-16T03:51:12;51.07;;;22.37;;
37529;SDS011;23374;52.758;6.872;2023-02-16T03:53:33;54.30;;;21.63;;
37529;SDS011;23374;52.758;6.872;2023-02-16T03:56:00;53.53;;;22.57;;
37529;SDS011;23374;52.758;6.872;2023-02-16T03:58:22;54.47;;;23.57;;
37529;SDS011;23374;52.758;6.872;2023-02-16T04:00:43;54.57;;;23.43;;
37529;SDS011;23374;52.758;6.872;2023-02-16T04:03:04;51.83;;;23.50;;
37529;SDS011;23374;52.758;6.872;2023-02-16T04:05:25;53.90;;;23.33;;
37529;SDS011;23374;52.758;6.872;2023-02-16T04:08:52;55.87;;;25.17;;
37529;SDS011;23374;52.758;6.872;2023-02-16T04:11:13;46.53;;;22.93;;
37529;SDS011;23374;52.758;6.872;2023-02-16T04:13:52;45.70;;;22.73;;
37529;SDS011;23374;52.758;6.872;2023-02-16T04:16:12;50.23;;;22.70;;
37529;SDS011;23374;52.758;6.872;2023-02-16T04:18:33;50.20;;;23.60;;
37529;SDS011;23374;52.758;6.872;2023-02-16T04:20:53;49.40;;;22.67;;
37529;SDS011;23374;52.758;6.872;2023-02-16T04:23:13;52.70;;;23.87;;
37529;SDS011;23374;52.758;6.872;2023-02-16T04:25:34;49.80;;;22.37;;
37529;SDS011;23374;52.758;6.872;2023-02-16T04:27:54;55.13;;;24.23;;
37529;SDS011;23374;52.758;6.872;2023-02-16T04:30:21;48.67;;;22.93;;
37529;SDS011;23374;52.758;6.872;2023-02-16T04:32:43;42.87;;;22.27;;
37529;SDS011;23374;52.758;6.872;2023-02-16T04:35:04;51.00;;;23.77;;
37529;SDS011;23374;52.758;6.872;2023-02-16T04:37:26;50.23;;;24.30;;
37529;SDS011;23374;52.758;6.872;2023-02-16T04:39:46;52.03;;;22.20;;
37529;SDS011;23374;52.758;6.872;2023-02-16T04:42:16;53.33;;;23.20;;
37529;SDS011;23374;52.758;6.872;2023-02-16T04:44:37;47.70;;;22.27;;
37529;SDS011;23374;52.758;6.872;2023-02-16T04:46:57;46.50;;;23.27;;
37529;SDS011;23374;52.758;6.872;2023-02-16T04:49:30;56.77;;;24.40;;
37529;SDS011;23374;52.758;6.872;2023-02-16T04:51:51;46.23;;;22.47;;
37529;SDS011;23374;52.758;6.872;2023-02-16T04:54:12;48.17;;;21.37;;
37529;SDS011;23374;52.758;6.872;2023-02-16T04:56:32;49.13;;;23.00;;
37529;SDS011;23374;52.758;6.872;2023-02-16T04:58:54;45.17;;;22.47;;
37529;SDS011;23374;52.758;6.872;2023-02-16T05:01:22;52.80;;;24.13;;
37529;SDS011;23374;52.758;6.872;2023-02-16T05:03:44;49.90;;;23.77;;
37529;SDS011;23374;52.758;6.872;2023-02-16T05:06:04;46.27;;;22.87;;
37529;SDS011;23374;52.758;6.872;2023-02-16T05:08:25;46.00;;;22.20;;
37529;SDS011;23374;52.758;6.872;2023-02-16T05:10:46;51.63;;;22.93;;
37529;SDS011;23374;52.758;6.872;2023-02-16T05:17:00;44.43;;;21.93;;
37529;SDS011;23374;52.758;6.872;2023-02-16T05:19:20;50.63;;;23.40;;
37529;SDS011;23374;52.758;6.872;2023-02-16T05:21:40;51.27;;;22.10;;
37529;SDS011;23374;52.758;6.872;2023-02-16T05:24:06;47.33;;;23.00;;
37529;SDS011;23374;52.758;6.872;2023-02-16T05:26:29;48.83;;;24.37;;
37529;SDS011;23374;52.758;6.872;2023-02-16T05:28:50;44.17;;;22.57;;
37529;SDS011;23374;52.758;6.872;2023-02-16T05:31:10;46.23;;;21.97;;
37529;SDS011;23374;52.758;6.872;2023-02-16T05:33:36;46.63;;;22.00;;
37529;SDS011;23374;52.758;6.872;2023-02-16T05:35:57;46.43;;;22.90;;
37529;SDS011;23374;52.758;6.872;2023-02-16T05:38:17;47.97;;;22.63;;
37529;SDS011;23374;52.758;6.872;2023-02-16T05:40:37;49.40;;;23.13;;
37529;SDS011;23374;52.758;6.872;2023-02-16T05:42:57;51.03;;;22.93;;
37529;SDS011;23374;52.758;6.872;2023-02-16T05:45:17;47.87;;;21.77;;
37529;SDS011;23374;52.758;6.872;2023-02-16T05:47:38;46.87;;;21.50;;
37529;SDS011;23374;52.758;6.872;2023-02-16T05:49:58;50.90;;;23.70;;
37529;SDS011;23374;52.758;6.872;2023-02-16T05:52:19;52.50;;;23.90;;
37529;SDS011;23374;52.758;6.872;2023-02-16T05:54:39;47.67;;;22.30;;
37529;SDS011;23374;52.758;6.872;2023-02-16T05:56:59;46.27;;;22.93;;
37529;SDS011;23374;52.758;6.872;2023-02-16T05:59:19;48.40;;;24.50;;
37529;SDS011;23374;52.758;6.872;2023-02-16T06:01:40;45.20;;;21.97;;
37529;SDS011;23374;52.758;6.872;2023-02-16T06:04:01;49.87;;;24.43;;
37529;SDS011;23374;52.758;6.872;2023-02-16T06:06:21;53.47;;;24.30;;
37529;SDS011;23374;52.758;6.872;2023-02-16T06:08:42;46.23;;;23.37;;
37529;SDS011;23374;52.758;6.872;2023-02-16T06:11:03;45.03;;;23.07;;
37529;SDS011;23374;52.758;6.872;2023-02-16T06:13:55;50.27;;;22.13;;
37529;SDS011;23374;52.758;6.872;2023-02-16T06:16:17;53.87;;;24.00;;
37529;SDS011;23374;52.758;6.872;2023-02-16T06:18:38;44.10;;;21.97;;
37529;SDS011;23374;52.758;6.872;2023-02-16T06:20:58;52.10;;;23.73;;
37529;SDS011;23374;52.758;6.872;2023-02-16T06:23:18;51.13;;;23.67;;
37529;SDS011;23374;52.758;6.872;2023-02-16T06:25:52;47.73;;;21.60;;
37529;SDS011;23374;52.758;6.872;2023-02-16T06:28:13;49.53;;;21.93;;
37529;SDS011;23374;52.758;6.872;2023-02-16T06:30:34;47.73;;;21.90;;
37529;SDS011;23374;52.758;6.872;2023-02-16T06:32:55;43.60;;;21.27;;
37529;SDS011;23374;52.758;6.872;2023-02-16T06:36:20;51.77;;;22.40;;
37529;SDS011;23374;52.758;6.872;2023-02-16T06:38:40;45.20;;;21.97;;
37529;SDS011;23374;52.758;6.872;2023-02-16T06:41:01;47.67;;;22.43;;
37529;SDS011;23374;52.758;6.872;2023-02-16T06:43:22;43.23;;;21.20;;
37529;SDS011;23374;52.758;6.872;2023-02-16T06:45:42;48.20;;;23.57;;
37529;SDS011;23374;52.758;6.872;2023-02-16T06:48:03;51.80;;;24.37;;
37529;SDS011;23374;52.758;6.872;2023-02-16T06:50:24;49.83;;;22.03;;
37529;SDS011;23374;52.758;6.872;2023-02-16T06:52:44;41.80;;;22.37;;
37529;SDS011;23374;52.758;6.872;2023-02-16T06:55:04;47.73;;;22.53;;
37529;SDS011;23374;52.758;6.872;2023-02-16T06:57:25;46.43;;;22.33;;
37529;SDS011;23374;52.758;6.872;2023-02-16T06:59:45;45.67;;;22.00;;
37529;SDS011;23374;52.758;6.872;2023-02-16T07:02:06;42.93;;;22.17;;
37529;SDS011;23374;52.758;6.872;2023-02-16T07:04:28;50.33;;;24.47;;
37529;SDS011;23374;52.758;6.872;2023-02-16T07:06:48;48.37;;;23.00;;
37529;SDS011;23374;52.758;6.872;2023-02-16T07:09:08;48.97;;;23.93;;
37529;SDS011;23374;52.758;6.872;2023-02-16T07:11:28;44.73;;;22.37;;
37529;SDS011;23374;52.758;6.872;2023-02-16T07:13:49;50.90;;;23.10;;
37529;SDS011;23374;52.758;6.872;2023-02-16T07:16:09;46.93;;;24.30;;
37529;SDS011;23374;52.758;6.872;2023-02-16T07:18:30;50.77;;;24.13;;
37529;SDS011;23374;52.758;6.872;2023-02-16T07:20:51;43.73;;;22.13;;
37529;SDS011;23374;52.758;6.872;2023-02-16T07:23:12;49.87;;;24.37;;
37529;SDS011;23374;52.758;6.872;2023-02-16T07:25:32;50.20;;;22.83;;
37529;SDS011;23374;52.758;6.872;2023-02-16T07:27:53;44.37;;;21.67;;
37529;SDS011;23374;52.758;6.872;2023-02-16T07:30:16;48.90;;;23.10;;
37529;SDS011;23374;52.758;6.872;2023-02-16T07:32:36;46.03;;;22.70;;
37529;SDS011;23374;52.758;6.872;2023-02-16T07:34:57;45.13;;;21.77;;
37529;SDS011;23374;52.758;6.872;2023-02-16T07:37:17;47.63;;;24.43;;
37529;SDS011;23374;52.758;6.872;2023-02-16T07:39:38;49.90;;;22.63;;
37529;SDS011;23374;52.758;6.872;2023-02-16T07:41:59;47.63;;;22.93;;
37529;SDS011;23374;52.758;6.872;2023-02-16T07:44:20;49.60;;;22.97;;
37529;SDS011;23374;52.758;6.872;2023-02-16T07:46:40;53.23;;;22.47;;
37529;SDS011;23374;52.758;6.872;2023-02-16T07:49:00;50.57;;;24.07;;
37529;SDS011;23374;52.758;6.872;2023-02-16T07:51:26;49.83;;;24.07;;
37529;SDS011;23374;52.758;6.872;2023-02-16T07:53:50;43.40;;;21.20;;
37529;SDS011;23374;52.758;6.872;2023-02-16T07:56:18;53.13;;;23.70;;
37529;SDS011;23374;52.758;6.872;2023-02-16T07:58:40;48.50;;;23.27;;
37529;SDS011;23374;52.758;6.872;2023-02-16T08:01:10;46.87;;;22.57;;
37529;SDS011;23374;52.758;6.872;2023-02-16T08:03:31;50.47;;;22.80;;
37529;SDS011;23374;52.758;6.872;2023-02-16T08:05:51;44.97;;;23.17;;
37529;SDS011;23374;52.758;6.872;2023-02-16T08:08:11;46.40;;;24.03;;
37529;SDS011;23374;52.758;6.872;2023-02-16T08:10:31;55.47;;;25.27;;
37529;SDS011;23374;52.758;6.872;2023-02-16T08:12:51;50.60;;;21.37;;
37529;SDS011;23374;52.758;6.872;2023-02-16T08:15:11;54.23;;;22.83;;
37529;SDS011;23374;52.758;6.872;2023-02-16T08:17:33;57.20;;;24.27;;
37529;SDS011;23374;52.758;6.872;2023-02-16T08:19:53;49.60;;;21.20;;
37529;SDS011;23374;52.758;6.872;2023-02-16T08:22:14;45.60;;;23.90;;
37529;SDS011;23374;52.758;6.872;2023-02-16T08:24:36;51.47;;;24.30;;
37529;SDS011;23374;52.758;6.872;2023-02-16T08:26:56;48.30;;;24.13;;
37529;SDS011;23374;52.758;6.872;2023-02-16T08:29:16;47.50;;;24.23;;
37529;SDS011;23374;52.758;6.872;2023-02-16T08:31:37;46.80;;;23.53;;
37529;SDS011;23374;52.758;6.872;2023-02-16T08:33:58;45.70;;;22.90;;
37529;SDS011;23374;52.758;6.872;2023-02-16T08:36:25;49.87;;;24.87;;
37529;SDS011;23374;52.758;6.872;2023-02-16T08:38:52;51.23;;;24.67;;
37529;SDS011;23374;52.758;6.872;2023-02-16T08:41:13;48.60;;;24.60;;
37529;SDS011;23374;52.758;6.872;2023-02-16T08:43:34;51.70;;;24.80;;
37529;SDS011;23374;52.758;6.872;2023-02-16T08:45:55;47.23;;;23.70;;
37529;SDS011;23374;52.758;6.872;2023-02-16T08:48:16;49.57;;;26.00;;
37529;SDS011;23374;52.758;6.872;2023-02-16T08:50:46;44.20;;;22.37;;
37529;SDS011;23374;52.758;6.872;2023-02-16T08:53:12;49.83;;;22.80;;
37529;SDS011;23374;52.758;6.872;2023-02-16T08:55:34;45.93;;;23.87;;
37529;SDS011;23374;52.758;6.872;2023-02-16T08:57:54;50.53;;;22.57;;
37529;SDS011;23374;52.758;6.872;2023-02-16T09:00:15;44.07;;;22.30;;
37529;SDS011;23374;52.758;6.872;2023-02-16T09:02:57;48.43;;;24.93;;
37529;SDS011;23374;52.758;6.872;2023-02-16T09:05:18;55.33;;;24.60;;
37529;SDS011;23374;52.758;6.872;2023-02-16T09:07:38;49.60;;;23.80;;
37529;SDS011;23374;52.758;6.872;2023-02-16T09:10:01;51.03;;;24.83;;
37529;SDS011;23374;52.758;6.872;2023-02-16T09:12:21;49.50;;;23.53;;
37529;SDS011;23374;52.758;6.872;2023-02-16T09:14:41;45.33;;;22.83;;
37529;SDS011;23374;52.758;6.872;2023-02-16T09:17:01;51.63;;;23.50;;
37529;SDS011;23374;52.758;6.872;2023-02-16T09:19:21;54.40;;;25.40;;
37529;SDS011;23374;52.758;6.872;2023-02-16T09:21:43;51.53;;;23.97;;
37529;SDS011;23374;52.758;6.872;2023-02-16T09:24:06;52.47;;;26.17;;
37529;SDS011;23374;52.758;6.872;2023-02-16T09:26:30;48.83;;;24.23;;
37529;SDS011;23374;52.758;6.872;2023-02-16T09:28:52;56.77;;;25.17;;
37529;SDS011;23374;52.758;6.872;2023-02-16T09:31:33;53.03;;;24.93;;
37529;SDS011;23374;52.758;6.872;2023-02-16T09:34:07;50.67;;;23.60;;
37529;SDS011;23374;52.758;6.872;2023-02-16T09:36:40;50.27;;;24.87;;
37529;SDS011;23374;52.758;6.872;2023-02-16T09:39:01;48.97;;;24.50;;
37529;SDS011;23374;52.758;6.872;2023-02-16T09:41:37;46.80;;;23.90;;
37529;SDS011;23374;52.758;6.872;2023-02-16T09:44:52;50.90;;;23.27;;
37529;SDS011;23374;52.758;6.872;2023-02-16T09:47:31;49.93;;;23.20;;
37529;SDS011;23374;52.758;6.872;2023-02-16T09:49:57;49.53;;;23.17;;
37529;SDS011;23374;52.758;6.872;2023-02-16T09:52:36;42.70;;;21.00;;
37529;SDS011;23374;52.758;6.872;2023-02-16T09:55:10;49.23;;;24.73;;
37529;SDS011;23374;52.758;6.872;2023-02-16T10:00:44;48.73;;;23.70;;
37529;SDS011;23374;52.758;6.872;2023-02-16T10:03:47;49.30;;;22.70;;
37529;SDS011;23374;52.758;6.872;2023-02-16T10:09:14;46.33;;;22.30;;
37529;SDS011;23374;52.758;6.872;2023-02-16T10:11:45;42.23;;;22.27;;
37529;SDS011;23374;52.758;6.872;2023-02-16T10:16:01;51.90;;;24.00;;
37529;SDS011;23374;52.758;6.872;2023-02-16T10:18:30;47.70;;;22.93;;
37529;SDS011;23374;52.758;6.872;2023-02-16T10:20:58;48.53;;;23.80;;
37529;SDS011;23374;52.758;6.872;2023-02-16T10:23:40;48.90;;;22.00;;
37529;SDS011;23374;52.758;6.872;2023-02-16T10:26:28;48.97;;;24.80;;
37529;SDS011;23374;52.758;6.872;2023-02-16T10:29:00;49.27;;;24.13;;
37529;SDS011;23374;52.758;6.872;2023-02-16T10:31:42;55.70;;;25.43;;
37529;SDS011;23374;52.758;6.872;2023-02-16T10:35:20;46.50;;;22.00;;
37529;SDS011;23374;52.758;6.872;2023-02-16T10:40:51;51.53;;;22.87;;
37529;SDS011;23374;52.758;6.872;2023-02-16T10:43:43;52.53;;;24.53;;
37529;SDS011;23374;52.758;6.872;2023-02-16T10:47:56;44.23;;;22.10;;
37529;SDS011;23374;52.758;6.872;2023-02-16T10:51:11;49.70;;;25.00;;
37529;SDS011;23374;52.758;6.872;2023-02-16T10:53:44;52.43;;;23.97;;
37529;SDS011;23374;52.758;6.872;2023-02-16T10:56:38;52.23;;;24.97;;
37529;SDS011;23374;52.758;6.872;2023-02-16T10:59:21;47.23;;;24.13;;
37529;SDS011;23374;52.758;6.872;2023-02-16T11:01:50;49.70;;;25.03;;
37529;SDS011;23374;52.758;6.872;2023-02-16T11:04:38;56.53;;;26.27;;
37529;SDS011;23374;52.758;6.872;2023-02-16T11:07:07;48.20;;;25.13;;
37529;SDS011;23374;52.758;6.872;2023-02-16T11:09:33;43.47;;;23.17;;
37529;SDS011;23374;52.758;6.872;2023-02-16T11:11:54;56.80;;;25.87;;
37529;SDS011;23374;52.758;6.872;2023-02-16T11:14:24;55.70;;;26.67;;
37529;SDS011;23374;52.758;6.872;2023-02-16T11:17:04;58.13;;;26.33;;
37529;SDS011;23374;52.758;6.872;2023-02-16T11:19:29;55.33;;;25.27;;
37529;SDS011;23374;52.758;6.872;2023-02-16T11:21:54;46.93;;;24.83;;
37529;SDS011;23374;52.758;6.872;2023-02-16T11:24:36;59.07;;;26.30;;
37529;SDS011;23374;52.758;6.872;2023-02-16T11:27:16;55.17;;;26.13;;
37529;SDS011;23374;52.758;6.872;2023-02-16T11:29:42;52.23;;;25.43;;
37529;SDS011;23374;52.758;6.872;2023-02-16T11:32:07;55.83;;;25.50;;
37529;SDS011;23374;52.758;6.872;2023-02-16T11:37:30;59.63;;;26.10;;
37529;SDS011;23374;52.758;6.872;2023-02-16T11:39:54;61.87;;;26.93;;
37529;SDS011;23374;52.758;6.872;2023-02-16T11:42:43;51.47;;;25.40;;
37529;SDS011;23374;52.758;6.872;2023-02-16T11:45:07;57.93;;;25.60;;
37529;SDS011;23374;52.758;6.872;2023-02-16T11:47:40;57.93;;;26.70;;
37529;SDS011;23374;52.758;6.872;2023-02-16T11:50:36;52.27;;;26.53;;
37529;SDS011;23374;52.758;6.872;2023-02-16T11:53:19;59.00;;;25.97;;
37529;SDS011;23374;52.758;6.872;2023-02-16T11:55:45;59.73;;;26.33;;
37529;SDS011;23374;52.758;6.872;2023-02-16T11:58:22;57.53;;;25.50;;
37529;SDS011;23374;52.758;6.872;2023-02-16T12:08:38;58.50;;;26.67;;
37529;SDS011;23374;52.758;6.872;2023-02-16T12:19:41;55.63;;;24.40;;
37529;SDS011;23374;52.758;6.872;2023-02-16T12:23:02;56.70;;;27.73;;
37529;SDS011;23374;52.758;6.872;2023-02-16T12:31:21;51.97;;;25.60;;
37529;SDS011;23374;52.758;6.872;2023-02-16T12:44:36;55.60;;;25.03;;
37529;SDS011;23374;52.758;6.872;2023-02-16T12:47:03;52.07;;;25.20;;
37529;SDS011;23374;52.758;6.872;2023-02-16T12:49:39;54.13;;;26.87;;
37529;SDS011;23374;52.758;6.872;2023-02-16T12:53:07;53.77;;;24.93;;
37529;SDS011;23374;52.758;6.872;2023-02-16T12:55:46;57.17;;;27.07;;
37529;SDS011;23374;52.758;6.872;2023-02-16T12:58:35;54.87;;;27.53;;
37529;SDS011;23374;52.758;6.872;2023-02-16T13:01:41;54.77;;;27.47;;
37529;SDS011;23374;52.758;6.872;2023-02-16T13:04:16;55.73;;;25.80;;
37529;SDS011;23374;52.758;6.872;2023-02-16T13:07:11;54.40;;;25.27;;
37529;SDS011;23374;52.758;6.872;2023-02-16T13:09:41;56.27;;;26.40;;
37529;SDS011;23374;52.758;6.872;2023-02-16T13:12:28;46.90;;;23.67;;
37529;SDS011;23374;52.758;6.872;2023-02-16T13:15:20;48.13;;;24.07;;
37529;SDS011;23374;52.758;6.872;2023-02-16T13:17:49;54.30;;;26.47;;
37529;SDS011;23374;52.758;6.872;2023-02-16T13:20:43;47.80;;;24.50;;
37529;SDS011;23374;52.758;6.872;2023-02-16T13:30:37;51.63;;;23.37;;
37529;SDS011;23374;52.758;6.872;2023-02-16T13:35:00;48.80;;;24.00;;
37529;SDS011;23374;52.758;6.872;2023-02-16T13:38:00;55.53;;;25.10;;
37529;SDS011;23374;52.758;6.872;2023-02-16T13:43:33;41.87;;;22.37;;
37529;SDS011;23374;52.758;6.872;2023-02-16T13:46:13;44.33;;;21.77;;
37529;SDS011;23374;52.758;6.872;2023-02-16T13:50:30;44.60;;;22.83;;
37529;SDS011;23374;52.758;6.872;2023-02-16T13:52:53;47.73;;;21.80;;
37529;SDS011;23374;52.758;6.872;2023-02-16T13:55:30;41.00;;;20.53;;
37529;SDS011;23374;52.758;6.872;2023-02-16T13:58:27;43.93;;;22.50;;
37529;SDS011;23374;52.758;6.872;2023-02-16T14:00:49;44.87;;;21.07;;
37529;SDS011;23374;52.758;6.872;2023-02-16T14:06:31;44.43;;;22.90;;
37529;SDS011;23374;52.758;6.872;2023-02-16T14:12:28;44.17;;;21.17;;
37529;SDS011;23374;52.758;6.872;2023-02-16T14:14:58;49.23;;;24.80;;
37529;SDS011;23374;52.758;6.872;2023-02-16T14:17:36;45.53;;;21.30;;
37529;SDS011;23374;52.758;6.872;2023-02-16T14:20:42;40.23;;;20.87;;
37529;SDS011;23374;52.758;6.872;2023-02-16T14:23:25;45.30;;;21.43;;
37529;SDS011;23374;52.758;6.872;2023-02-16T14:26:00;51.37;;;22.70;;
37529;SDS011;23374;52.758;6.872;2023-02-16T14:29:05;54.60;;;24.87;;
37529;SDS011;23374;52.758;6.872;2023-02-16T14:31:48;50.10;;;23.50;;
37529;SDS011;23374;52.758;6.872;2023-02-16T14:34:27;47.67;;;22.83;;
37529;SDS011;23374;52.758;6.872;2023-02-16T14:45:25;47.37;;;21.83;;
37529;SDS011;23374;52.758;6.872;2023-02-16T14:51:05;46.70;;;23.77;;
37529;SDS011;23374;52.758;6.872;2023-02-16T14:57:29;45.57;;;20.27;;
37529;SDS011;23374;52.758;6.872;2023-02-16T15:03:53;44.90;;;21.33;;
37529;SDS011;23374;52.758;6.872;2023-02-16T15:06:41;44.70;;;20.63;;
37529;SDS011;23374;52.758;6.872;2023-02-16T15:09:12;46.87;;;22.30;;
37529;SDS011;23374;52.758;6.872;2023-02-16T15:11:53;51.27;;;23.70;;
37529;SDS011;23374;52.758;6.872;2023-02-16T15:14:40;43.80;;;21.03;;
37529;SDS011;23374;52.758;6.872;2023-02-16T15:17:07;46.23;;;21.70;;
37529;SDS011;23374;52.758;6.872;2023-02-16T15:19:29;45.33;;;22.90;;
37529;SDS011;23374;52.758;6.872;2023-02-16T15:22:09;38.43;;;21.73;;
37529;SDS011;23374;52.758;6.872;2023-02-16T15:24:39;38.27;;;20.57;;
37529;SDS011;23374;52.758;6.872;2023-02-16T15:27:00;42.97;;;21.80;;
37529;SDS011;23374;52.758;6.872;2023-02-16T15:29:23;44.37;;;21.40;;
37529;SDS011;23374;52.758;6.872;2023-02-16T15:31:45;42.20;;;21.63;;
37529;SDS011;23374;52.758;6.872;2023-02-16T15:34:13;44.97;;;21.67;;
37529;SDS011;23374;52.758;6.872;2023-02-16T15:36:44;44.77;;;22.10;;
37529;SDS011;23374;52.758;6.872;2023-02-16T15:39:23;44.40;;;23.13;;
37529;SDS011;23374;52.758;6.872;2023-02-16T15:41:47;47.07;;;21.63;;
37529;SDS011;23374;52.758;6.872;2023-02-16T15:44:31;43.03;;;22.00;;
37529;SDS011;23374;52.758;6.872;2023-02-16T15:47:14;41.93;;;20.17;;
37529;SDS011;23374;52.758;6.872;2023-02-16T15:49:39;40.57;;;20.57;;
37529;SDS011;23374;52.758;6.872;2023-02-16T15:52:00;35.97;;;20.33;;
37529;SDS011;23374;52.758;6.872;2023-02-16T15:54:31;43.10;;;21.33;;
37529;SDS011;23374;52.758;6.872;2023-02-16T15:56:57;42.57;;;21.43;;
37529;SDS011;23374;52.758;6.872;2023-02-16T15:59:39;44.40;;;21.83;;
37529;SDS011;23374;52.758;6.872;2023-02-16T16:02:14;39.10;;;20.10;;
37529;SDS011;23374;52.758;6.872;2023-02-16T16:04:50;42.20;;;20.27;;
37529;SDS011;23374;52.758;6.872;2023-02-16T16:07:18;43.60;;;21.87;;
37529;SDS011;23374;52.758;6.872;2023-02-16T16:09:58;39.40;;;20.50;;
37529;SDS011;23374;52.758;6.872;2023-02-16T16:12:20;39.60;;;19.50;;
37529;SDS011;23374;52.758;6.872;2023-02-16T16:14:47;43.63;;;20.10;;
37529;SDS011;23374;52.758;6.872;2023-02-16T16:17:12;40.43;;;20.97;;
37529;SDS011;23374;52.758;6.872;2023-02-16T16:19:37;39.37;;;19.87;;
37529;SDS011;23374;52.758;6.872;2023-02-16T16:21:57;43.90;;;21.13;;
37529;SDS011;23374;52.758;6.872;2023-02-16T16:24:37;42.90;;;21.10;;
37529;SDS011;23374;52.758;6.872;2023-02-16T16:26:59;40.23;;;20.70;;
37529;SDS011;23374;52.758;6.872;2023-02-16T16:30:23;42.23;;;20.63;;
37529;SDS011;23374;52.758;6.872;2023-02-16T16:33:07;37.53;;;19.77;;
37529;SDS011;23374;52.758;6.872;2023-02-16T16:35:44;37.40;;;19.63;;